Time;durP1;ratioP1;P1;durP2;ratioP2;P2;SDS_P1;SDS_P2;PMS_P1;PMS_P2;Temp;Humidity;BMP_temperature;BMP_pressure;BME280_temperature;BME280_humidity;BME280_pressure;Samples;Min_cycle;Max_cycle;Signal;HPM_P1;HPM_P2
2021/07/30 00:01:48;;;;;;;13.07;5.40;;;16.60;99.90;;;;;;5039350;28;19956;-87
2021/07/30 00:04:15;;;;;;;9.10;4.93;;;16.60;99.90;;;;;;5051510;28;20100;-87
2021/07/30 00:06:42;;;;;;;10.43;5.15;;;16.50;99.90;;;;;;5043662;28;20128;-86
2021/07/30 00:09:11;;;;;;;9.45;5.53;;;16.50;99.90;;;;;;5041130;28;20486;-85
2021/07/30 00:11:39;;;;;;;9.93;4.90;;;16.50;99.90;;;;;;5058029;23;20044;-79
2021/07/30 00:14:06;;;;;;;8.75;5.40;;;16.50;99.90;;;;;;5039180;28;20408;-79
2021/07/30 00:16:33;;;;;;;11.43;5.47;;;16.50;99.90;;;;;;5055368;28;20045;-77
2021/07/30 00:19:00;;;;;;;9.65;5.72;;;16.50;99.90;;;;;;5054612;28;20049;-80
2021/07/30 00:21:27;;;;;;;11.73;5.50;;;16.50;99.90;;;;;;5054841;28;20501;-79
2021/07/30 00:23:54;;;;;;;7.38;5.00;;;16.60;99.90;;;;;;5055501;28;20139;-80
2021/07/30 00:26:22;;;;;;;11.85;6.10;;;16.60;99.90;;;;;;5055905;28;20438;-80
2021/07/30 00:28:49;;;;;;;8.73;5.40;;;16.60;99.90;;;;;;5057247;28;20049;-80
2021/07/30 00:31:16;;;;;;;10.00;5.10;;;16.70;99.90;;;;;;5057023;28;20144;-80
2021/07/30 00:33:43;;;;;;;8.57;6.10;;;16.70;99.90;;;;;;5057723;28;20129;-81
2021/07/30 00:36:10;;;;;;;8.30;5.38;;;16.70;99.90;;;;;;5058420;28;20084;-81
2021/07/30 00:38:36;;;;;;;11.32;5.05;;;16.70;99.90;;;;;;5057159;28;20132;-80
2021/07/30 00:41:03;;;;;;;11.75;5.68;;;16.70;99.90;;;;;;5057115;28;20049;-81
2021/07/30 00:43:31;;;;;;;6.95;5.75;;;16.80;99.90;;;;;;5055848;28;20136;-80
2021/07/30 00:46:00;;;;;;;12.32;5.03;;;16.90;99.90;;;;;;5055756;28;20049;-80
2021/07/30 00:48:29;;;;;;;7.28;5.07;;;16.90;99.90;;;;;;5054974;28;20044;-80
2021/07/30 00:50:57;;;;;;;7.95;5.10;;;16.80;99.90;;;;;;5054352;28;20052;-81
2021/07/30 00:53:25;;;;;;;7.50;5.03;;;16.80;99.90;;;;;;5054134;28;20112;-81
2021/07/30 00:55:53;;;;;;;7.88;4.95;;;16.90;99.90;;;;;;5055241;28;20044;-80
2021/07/30 00:58:21;;;;;;;9.90;5.10;;;16.90;99.90;;;;;;5053792;28;20080;-80
2021/07/30 01:00:49;;;;;;;6.82;5.20;;;17.00;99.90;;;;;;5054419;28;20109;-80
2021/07/30 01:03:16;;;;;;;9.93;5.00;;;17.00;99.90;;;;;;5054913;28;20535;-81
2021/07/30 01:05:43;;;;;;;7.82;5.13;;;17.00;99.90;;;;;;5053750;28;20215;-80
2021/07/30 01:08:10;;;;;;;9.65;5.13;;;17.00;99.90;;;;;;5054502;28;20059;-79
2021/07/30 01:10:37;;;;;;;8.95;4.97;;;17.00;99.90;;;;;;5054030;28;20049;-80
2021/07/30 01:13:04;;;;;;;7.75;4.82;;;17.00;99.90;;;;;;5054146;28;20190;-79
2021/07/30 01:15:31;;;;;;;9.63;5.03;;;17.00;99.90;;;;;;5054143;28;20083;-75
2021/07/30 01:17:59;;;;;;;9.23;5.63;;;17.00;99.90;;;;;;5053749;28;20132;-75
2021/07/30 01:20:27;;;;;;;12.65;4.90;;;17.00;99.90;;;;;;5052081;28;20429;-76
2021/07/30 01:22:57;;;;;;;9.18;5.35;;;17.00;99.90;;;;;;5051772;28;20056;-79
2021/07/30 01:25:26;;;;;;;10.32;5.60;;;17.10;99.90;;;;;;5053047;28;20140;-79
2021/07/30 01:27:54;;;;;;;7.18;5.03;;;17.10;99.90;;;;;;5053622;28;20071;-79
2021/07/30 01:30:23;;;;;;;9.77;5.57;;;17.10;99.90;;;;;;5053474;28;20136;-77
2021/07/30 01:32:50;;;;;;;6.97;4.78;;;17.10;99.90;;;;;;5053377;28;20532;-80
2021/07/30 01:35:17;;;;;;;9.77;5.15;;;17.10;99.90;;;;;;5053510;28;20131;-79
2021/07/30 01:37:44;;;;;;;9.98;5.20;;;17.10;99.90;;;;;;5053528;28;20045;-79
2021/07/30 01:40:14;;;;;;;10.00;5.10;;;17.20;99.90;;;;;;5053329;28;20081;-79
2021/07/30 01:42:42;;;;;;;6.43;4.90;;;17.10;99.90;;;;;;5053305;28;20084;-78
2021/07/30 01:45:10;;;;;;;11.32;4.78;;;17.10;99.90;;;;;;5053208;28;20053;-80
2021/07/30 01:47:37;;;;;;;7.20;4.95;;;17.20;99.90;;;;;;5053991;28;20048;-80
2021/07/30 01:50:04;;;;;;;9.93;5.22;;;17.30;99.90;;;;;;5054579;28;20429;-80
2021/07/30 01:52:31;;;;;;;8.88;5.40;;;17.30;99.90;;;;;;5053975;28;20561;-79
2021/07/30 01:54:58;;;;;;;6.70;4.85;;;17.40;99.90;;;;;;5052270;28;20459;-81
2021/07/30 01:57:27;;;;;;;7.68;4.70;;;17.30;99.90;;;;;;5052538;28;20148;-79
2021/07/30 01:59:54;;;;;;;9.80;5.50;;;17.20;99.90;;;;;;5053131;28;20049;-80
2021/07/30 02:02:21;;;;;;;6.97;5.25;;;17.20;99.90;;;;;;5053254;28;20067;-79
2021/07/30 02:04:48;;;;;;;7.50;5.50;;;17.10;99.90;;;;;;5052853;28;20049;-79
2021/07/30 02:07:18;;;;;;;8.50;4.93;;;17.10;99.90;;;;;;5052941;28;20049;-79
2021/07/30 02:09:45;;;;;;;7.38;4.95;;;17.10;99.90;;;;;;5053573;28;20115;-80
2021/07/30 02:12:12;;;;;;;7.15;5.57;;;17.20;99.90;;;;;;5056560;28;20053;-79
2021/07/30 02:14:39;;;;;;;8.07;5.32;;;17.10;99.90;;;;;;5058024;28;20055;-80
2021/07/30 02:17:06;;;;;;;8.52;5.13;;;17.00;99.90;;;;;;5057190;28;20045;-79
2021/07/30 02:19:33;;;;;;;7.28;5.22;;;16.90;99.90;;;;;;5057391;28;20652;-79
2021/07/30 02:22:00;;;;;;;13.20;5.57;;;16.80;99.90;;;;;;5056862;28;20131;-79
2021/07/30 02:24:27;;;;;;;8.93;5.25;;;16.80;99.90;;;;;;5058474;28;20045;-79
2021/07/30 02:26:54;;;;;;;9.68;5.47;;;16.60;99.90;;;;;;5057575;28;20049;-80
2021/07/30 02:29:21;;;;;;;9.10;5.35;;;16.60;99.90;;;;;;5057761;28;20048;-80
2021/07/30 02:31:49;;;;;;;7.38;5.40;;;16.50;99.90;;;;;;5058529;28;20116;-80
2021/07/30 02:34:16;;;;;;;8.32;5.53;;;16.50;99.90;;;;;;5058823;28;20060;-80
2021/07/30 02:36:43;;;;;;;10.75;5.85;;;16.40;99.90;;;;;;5058237;28;20569;-80
2021/07/30 02:39:10;;;;;;;9.20;5.57;;;16.30;99.90;;;;;;5058009;28;20139;-81
2021/07/30 02:41:37;;;;;;;9.35;5.88;;;16.30;99.90;;;;;;5062281;28;20131;-80
2021/07/30 02:44:04;;;;;;;10.00;5.97;;;16.20;99.90;;;;;;5063676;28;20088;-80
2021/07/30 02:46:31;;;;;;;6.32;5.35;;;16.20;99.90;;;;;;5063234;28;20115;-80
2021/07/30 02:48:59;;;;;;;8.27;5.88;;;16.20;99.90;;;;;;5063118;28;20509;-80
2021/07/30 02:51:26;;;;;;;8.27;6.00;;;16.20;99.90;;;;;;5064407;28;20071;-80
2021/07/30 02:53:53;;;;;;;8.65;5.60;;;16.20;99.90;;;;;;5063811;28;20440;-80
2021/07/30 02:56:20;;;;;;;7.97;6.25;;;16.20;99.90;;;;;;5065493;28;20053;-80
2021/07/30 02:58:47;;;;;;;15.75;6.40;;;16.10;99.90;;;;;;5064963;28;20088;-80
2021/07/30 03:01:14;;;;;;;10.95;6.10;;;16.10;99.90;;;;;;5060120;28;20091;-79
2021/07/30 03:03:41;;;;;;;9.63;6.40;;;16.10;99.90;;;;;;5058134;28;20051;-78
2021/07/30 03:06:09;;;;;;;10.30;6.45;;;16.10;99.90;;;;;;5058604;28;20132;-80
2021/07/30 03:08:36;;;;;;;13.07;6.22;;;16.00;99.90;;;;;;5060935;28;20091;-82
2021/07/30 03:11:03;;;;;;;13.70;7.00;;;15.90;99.90;;;;;;5060617;28;20120;-80
2021/07/30 03:13:30;;;;;;;14.20;7.22;;;15.80;99.90;;;;;;5056065;28;20572;-79
2021/07/30 03:15:57;;;;;;;15.75;7.43;;;15.90;99.90;;;;;;5055276;28;20051;-79
2021/07/30 03:18:26;;;;;;;13.10;7.20;;;15.90;99.90;;;;;;5055571;28;20417;-79
2021/07/30 03:20:53;;;;;;;14.88;7.20;;;15.80;99.90;;;;;;5055305;28;20051;-79
2021/07/30 03:23:21;;;;;;;12.70;6.68;;;15.80;99.90;;;;;;5055526;28;20181;-80
2021/07/30 03:25:48;;;;;;;15.60;7.43;;;15.80;99.90;;;;;;5057210;28;20430;-81
2021/07/30 03:28:15;;;;;;;11.00;6.80;;;15.70;99.90;;;;;;5058311;28;20132;-80
2021/07/30 03:30:42;;;;;;;13.23;6.97;;;15.70;99.90;;;;;;5058405;28;20127;-80
2021/07/30 03:33:09;;;;;;;13.15;7.40;;;15.70;99.90;;;;;;5056564;28;20049;-81
2021/07/30 03:35:35;;;;;;;9.90;6.55;;;15.60;99.90;;;;;;5057254;28;20136;-79
2021/07/30 03:38:02;;;;;;;10.85;6.45;;;15.60;99.90;;;;;;5055651;28;20056;-79
2021/07/30 03:40:31;;;;;;;10.70;6.50;;;15.50;99.90;;;;;;5055827;28;20049;-79
2021/07/30 03:42:58;;;;;;;9.82;6.80;;;15.50;99.90;;;;;;5054940;28;20055;-80
2021/07/30 03:45:25;;;;;;;10.57;6.40;;;15.40;99.90;;;;;;5057670;28;20136;-80
2021/07/30 03:47:52;;;;;;;10.52;6.60;;;15.40;99.90;;;;;;5056757;28;20048;-80
2021/07/30 03:50:19;;;;;;;15.13;7.30;;;15.40;99.90;;;;;;5056512;28;20476;-79
2021/07/30 03:52:46;;;;;;;9.70;6.88;;;15.40;99.90;;;;;;5055890;28;20128;-80
2021/07/30 03:55:13;;;;;;;12.57;7.35;;;15.40;99.90;;;;;;5055380;28;20049;-79
2021/07/30 03:57:41;;;;;;;11.90;6.82;;;15.40;99.90;;;;;;5056172;28;20139;-80
2021/07/30 04:00:09;;;;;;;11.25;6.75;;;15.40;99.90;;;;;;5060393;28;20095;-79
2021/07/30 04:02:36;;;;;;;11.75;6.88;;;15.30;99.90;;;;;;5061183;28;20470;-80
2021/07/30 04:05:03;;;;;;;11.27;7.03;;;15.30;99.90;;;;;;5060125;28;20115;-80
2021/07/30 04:07:30;;;;;;;9.55;6.95;;;15.40;99.90;;;;;;5060686;28;20069;-80
2021/07/30 04:09:58;;;;;;;10.77;6.30;;;15.40;99.90;;;;;;5062052;28;20045;-80
2021/07/30 04:12:25;;;;;;;12.05;6.60;;;15.40;99.90;;;;;;5061364;28;20053;-80
2021/07/30 04:14:53;;;;;;;10.77;6.60;;;15.40;99.90;;;;;;5060506;28;20116;-79
2021/07/30 04:17:20;;;;;;;9.15;6.65;;;15.40;99.90;;;;;;5056590;28;20045;-80
2021/07/30 04:19:47;;;;;;;9.95;6.68;;;15.40;99.90;;;;;;5055145;28;20049;-79
2021/07/30 04:22:14;;;;;;;11.88;6.15;;;15.50;99.90;;;;;;5053701;28;20048;-79
2021/07/30 04:24:41;;;;;;;9.00;6.32;;;15.60;99.90;;;;;;5053231;28;20055;-78
2021/07/30 04:27:08;;;;;;;10.43;6.35;;;15.60;99.90;;;;;;5053615;28;20131;-78
2021/07/30 04:29:38;;;;;;;10.20;6.50;;;15.50;99.90;;;;;;5053264;28;20049;-77
2021/07/30 04:32:09;;;;;;;7.93;6.32;;;15.60;99.90;;;;;;5053466;28;20052;-77
2021/07/30 04:34:36;;;;;;;7.60;5.95;;;15.50;99.90;;;;;;5052544;28;20049;-78
2021/07/30 04:37:03;;;;;;;9.80;6.22;;;15.60;99.90;;;;;;5053238;28;20045;-78
2021/07/30 04:39:30;;;;;;;9.77;6.30;;;15.60;99.90;;;;;;5053396;28;20048;-78
2021/07/30 04:41:57;;;;;;;10.70;6.35;;;15.70;99.90;;;;;;5052855;28;20059;-77
2021/07/30 04:44:24;;;;;;;13.52;6.45;;;15.70;99.90;;;;;;5053055;28;20088;-79
2021/07/30 04:46:51;;;;;;;10.70;6.72;;;15.80;99.90;;;;;;5053556;28;20049;-79
2021/07/30 04:49:19;;;;;;;9.63;6.88;;;15.70;99.90;;;;;;5053335;28;20153;-78
2021/07/30 04:51:46;;;;;;;10.55;6.78;;;15.70;99.90;;;;;;5052871;28;20057;-77
2021/07/30 04:54:13;;;;;;;10.48;6.38;;;15.70;99.90;;;;;;5052084;28;20565;-78
2021/07/30 04:56:40;;;;;;;11.02;6.47;;;15.70;99.90;;;;;;5053093;28;20044;-79
2021/07/30 04:59:07;;;;;;;9.20;6.50;;;15.80;99.90;;;;;;5052947;28;20053;-78
2021/07/30 05:01:40;;;;;;;10.75;5.68;;;15.90;99.90;;;;;;5052503;28;20440;-77
2021/07/30 05:04:07;;;;;;;8.73;6.28;;;16.00;99.90;;;;;;5053263;28;20436;-79
2021/07/30 05:06:35;;;;;;;10.10;5.60;;;16.10;99.90;;;;;;5053052;28;20071;-79
2021/07/30 05:09:02;;;;;;;11.18;6.15;;;16.30;99.90;;;;;;5053381;28;20109;-79
2021/07/30 05:11:29;;;;;;;10.10;5.88;;;16.40;99.90;;;;;;5053198;28;20553;-80
2021/07/30 05:13:56;;;;;;;8.02;5.72;;;16.40;99.90;;;;;;5053239;28;20448;-79
2021/07/30 05:16:23;;;;;;;8.60;5.85;;;16.40;99.90;;;;;;5054956;28;20461;-80
2021/07/30 05:18:50;;;;;;;8.55;5.60;;;16.50;99.90;;;;;;5054805;28;20132;-79
2021/07/30 05:21:17;;;;;;;9.57;6.22;;;16.50;99.90;;;;;;5054383;28;20075;-80
2021/07/30 05:23:45;;;;;;;9.65;6.00;;;16.40;99.90;;;;;;5054283;28;20053;-79
2021/07/30 05:26:12;;;;;;;9.73;5.82;;;16.40;99.90;;;;;;5056531;28;20049;-79
2021/07/30 05:28:39;;;;;;;10.07;6.15;;;16.40;99.90;;;;;;5056326;28;20051;-79
2021/07/30 05:31:06;;;;;;;9.27;6.22;;;16.50;99.90;;;;;;5054844;28;20140;-78
2021/07/30 05:33:33;;;;;;;9.75;6.18;;;16.60;99.90;;;;;;5054944;28;20147;-80
2021/07/30 05:36:00;;;;;;;9.27;6.78;;;16.80;99.90;;;;;;5054774;28;20088;-79
2021/07/30 05:38:26;;;;;;;9.80;5.70;;;17.00;99.90;;;;;;5054372;28;20576;-80
2021/07/30 05:40:55;;;;;;;8.73;5.80;;;17.20;99.90;;;;;;5053471;28;20076;-78
2021/07/30 05:43:21;;;;;;;8.35;6.13;;;17.70;99.90;;;;;;5052349;28;20417;-79
2021/07/30 05:45:48;;;;;;;10.15;5.80;;;18.30;99.90;;;;;;5044581;28;20045;-77
2021/07/30 05:48:15;;;;;;;7.57;5.32;;;19.10;99.90;;;;;;5020682;28;20054;-80
2021/07/30 05:50:42;;;;;;;9.40;5.30;;;19.80;99.90;;;;;;5013438;28;20113;-79
2021/07/30 05:53:09;;;;;;;8.30;5.32;;;20.50;99.90;;;;;;5012481;28;20060;-76
2021/07/30 05:55:37;;;;;;;9.15;6.25;;;21.10;99.90;;;;;;5013846;28;20134;-78
2021/07/30 05:58:06;;;;;;;9.27;5.75;;;21.50;99.90;;;;;;5014457;28;20049;-78
2021/07/30 06:00:33;;;;;;;10.73;5.18;;;21.50;99.90;;;;;;5015115;28;20103;-79
2021/07/30 06:02:59;;;;;;;8.65;5.90;;;21.40;99.90;;;;;;5022369;28;20045;-78
2021/07/30 06:05:26;;;;;;;7.82;5.20;;;21.50;99.90;;;;;;5017202;28;20046;-80
2021/07/30 06:07:56;;;;;;;8.57;4.70;;;21.50;99.90;;;;;;5021453;28;20046;-80
2021/07/30 06:10:23;;;;;;;9.90;5.18;;;21.60;99.90;;;;;;5027134;28;20075;-80
2021/07/30 06:12:56;;;;;;;12.77;5.47;;;21.80;99.90;;;;;;5051069;23;20193;-83
2021/07/30 06:15:33;;;;;;;8.82;5.20;;;22.10;99.90;;;;;;5057334;28;20049;-83
2021/07/30 06:36:03;;;;;;;8.02;5.35;;;23.60;99.90;;;;;;4961470;28;20062;-85
2021/07/30 06:38:40;;;;;;;8.23;4.55;;;23.80;99.90;;;;;;5013235;28;20041;-84
2021/07/30 06:41:23;;;;;;;12.02;5.40;;;23.90;99.90;;;;;;5039868;28;20537;-86
2021/07/30 07:01:02;;;;;;;7.90;4.38;;;25.40;99.90;;;;;;4912731;29;20497;-85
2021/07/30 07:06:36;;;;;;;7.88;4.03;;;24.30;99.90;;;;;;5048098;28;20053;-84
2021/07/30 07:09:36;;;;;;;6.57;4.15;;;24.10;99.90;;;;;;5058370;28;20390;-87
2021/07/30 07:12:28;;;;;;;8.32;4.13;;;24.60;99.90;;;;;;5019279;28;20064;-86
2021/07/30 07:15:32;;;;;;;10.02;4.05;;;25.10;99.90;;;;;;5058294;28;20061;-86
2021/07/30 07:18:11;;;;;;;7.50;4.20;;;25.30;99.90;;;;;;5057584;28;20049;-85
2021/07/30 07:20:46;;;;;;;7.75;4.55;;;25.50;99.90;;;;;;5066017;28;20044;-85
2021/07/30 07:23:15;;;;;;;6.68;4.38;;;25.60;99.90;;;;;;5063727;28;20131;-85
2021/07/30 07:25:58;;;;;;;10.55;4.75;;;26.10;99.90;;;;;;5062564;28;20045;-84
2021/07/30 07:28:50;;;;;;;;;;;;;;;;;;;;;
2021/07/30 07:34:14;;;;;;;8.82;4.38;;;26.70;99.90;;;;;;5059356;28;20056;-86
2021/07/30 07:36:41;;;;;;;6.43;4.47;;;26.20;99.90;;;;;;5063575;28;20075;-82
2021/07/30 07:39:08;;;;;;;9.45;4.20;;;26.20;99.90;;;;;;5063661;28;20091;-85
2021/07/30 07:41:35;;;;;;;6.03;4.07;;;26.30;99.90;;;;;;5064958;28;20053;-84
2021/07/30 07:44:03;;;;;;;8.43;4.63;;;26.50;99.90;;;;;;5066013;28;20326;-84
2021/07/30 07:46:30;;;;;;;6.95;4.35;;;26.70;99.90;;;;;;5067847;28;20071;-85
2021/07/30 07:48:59;;;;;;;4.65;3.85;;;27.00;99.90;;;;;;5066464;28;20045;-85
2021/07/30 07:51:26;;;;;;;6.03;4.03;;;27.10;99.90;;;;;;5064870;28;20060;-83
2021/07/30 07:53:52;;;;;;;8.27;4.10;;;27.40;99.90;;;;;;5066338;28;20060;-85
2021/07/30 07:56:19;;;;;;;4.90;3.70;;;27.80;99.90;;;;;;5065815;28;20076;-83
2021/07/30 07:58:46;;;;;;;6.10;4.20;;;27.70;99.90;;;;;;5065998;28;20104;-84
2021/07/30 08:01:16;;;;;;;7.03;3.90;;;27.80;99.90;;;;;;5065964;28;20076;-85
2021/07/30 08:03:44;;;;;;;7.75;4.53;;;27.80;99.90;;;;;;5065668;28;20088;-85
2021/07/30 08:06:16;;;;;;;4.97;3.95;;;28.10;99.90;;;;;;5064720;28;20072;-85
2021/07/30 08:08:43;;;;;;;5.25;3.75;;;28.40;99.90;;;;;;5065061;28;20048;-86
2021/07/30 08:11:11;;;;;;;5.70;3.92;;;28.70;99.90;;;;;;5065234;28;20060;-86
2021/07/30 08:13:38;;;;;;;6.78;4.25;;;28.30;99.90;;;;;;5066069;28;20053;-87
2021/07/30 08:16:06;;;;;;;9.88;4.40;;;28.10;99.90;;;;;;5065793;28;20075;-87
2021/07/30 08:18:34;;;;;;;7.53;4.10;;;28.20;99.90;;;;;;5066070;28;20147;-86
2021/07/30 08:21:01;;;;;;;6.07;4.00;;;28.20;99.90;;;;;;5064905;28;20120;-80
2021/07/30 08:23:28;;;;;;;9.02;4.32;;;28.30;99.90;;;;;;5066252;28;20081;-85
2021/07/30 08:25:55;;;;;;;5.95;3.88;;;28.50;99.90;;;;;;5066499;28;20132;-84
2021/07/30 08:28:22;;;;;;;5.32;4.05;;;28.50;99.90;;;;;;5066374;28;20108;-85
2021/07/30 08:30:49;;;;;;;8.88;4.18;;;28.80;99.90;;;;;;5063607;28;20060;-84
2021/07/30 08:33:16;;;;;;;6.10;4.20;;;28.80;99.90;;;;;;5064663;28;20131;-85
2021/07/30 08:35:44;;;;;;;6.00;4.00;;;28.80;99.90;;;;;;5065096;28;20103;-84
2021/07/30 08:38:11;;;;;;;7.57;4.18;;;29.00;99.90;;;;;;5064251;28;20421;-85
2021/07/30 08:40:39;;;;;;;6.25;3.60;;;29.20;99.90;;;;;;5063825;28;20108;-85
2021/07/30 08:43:05;;;;;;;5.35;3.60;;;29.40;99.90;;;;;;5063718;28;20052;-85
2021/07/30 08:45:32;;;;;;;10.73;3.90;;;29.00;99.90;;;;;;5063420;28;20116;-86
2021/07/30 08:48:01;;;;;;;8.07;3.70;;;28.90;99.90;;;;;;5065225;28;20077;-84
2021/07/30 08:50:29;;;;;;;6.18;4.00;;;28.70;99.90;;;;;;5059915;28;20048;-82
2021/07/30 08:52:57;;;;;;;6.32;4.53;;;28.90;99.90;;;;;;5058895;28;20610;-81
2021/07/30 08:55:29;;;;;;;4.53;3.90;;;29.00;99.90;;;;;;5058677;28;20053;-83
2021/07/30 08:57:56;;;;;;;8.18;4.05;;;29.10;99.90;;;;;;5059223;28;20112;-81
2021/07/30 09:00:24;;;;;;;6.20;3.75;;;29.10;99.90;;;;;;5059566;28;20132;-82
2021/07/30 09:02:51;;;;;;;10.15;4.28;;;29.20;99.90;;;;;;5057813;28;20209;-84
2021/07/30 09:05:28;;;;;;;5.65;4.00;;;29.00;99.90;;;;;;5058267;28;20094;-83
2021/07/30 09:07:57;;;;;;;7.55;4.05;;;28.90;99.90;;;;;;5059615;28;20053;-84
2021/07/30 09:10:29;;;;;;;8.98;3.83;;;28.70;99.90;;;;;;5060550;28;20160;-85
2021/07/30 09:13:14;;;;;;;8.07;4.13;;;28.40;99.90;;;;;;5059549;28;20067;-84
2021/07/30 09:15:41;;;;;;;6.40;3.95;;;28.30;99.90;;;;;;5060444;28;20108;-84
2021/07/30 09:18:23;;;;;;;6.30;3.90;;;28.60;99.90;;;;;;5068307;28;20108;-82
2021/07/30 09:20:50;;;;;;;8.20;4.20;;;28.80;99.90;;;;;;5069056;28;20049;-82
2021/07/30 09:23:19;;;;;;;5.78;4.10;;;29.00;99.90;;;;;;5070580;28;20056;-82
2021/07/30 09:25:46;;;;;;;7.28;4.18;;;29.20;99.90;;;;;;5060301;28;20461;-84
2021/07/30 09:28:13;;;;;;;5.88;4.07;;;29.10;99.90;;;;;;5059932;28;20542;-83
2021/07/30 09:30:40;;;;;;;6.38;4.18;;;28.80;99.90;;;;;;5060425;28;20072;-84
2021/07/30 09:33:06;;;;;;;5.68;4.35;;;28.40;99.90;;;;;;5059490;28;20116;-83
2021/07/30 09:35:56;;;;;;;7.28;4.30;;;28.30;99.90;;;;;;5060780;28;20056;-83
2021/07/30 09:38:26;;;;;;;9.35;4.50;;;28.70;99.90;;;;;;5060288;28;20049;-83
2021/07/30 09:41:10;;;;;;;8.02;4.68;;;28.80;99.90;;;;;;5060543;28;20048;-84
2021/07/30 09:43:38;;;;;;;5.57;4.20;;;28.80;99.90;;;;;;5060345;28;20493;-84
2021/07/30 09:46:11;;;;;;;6.03;4.15;;;28.40;99.90;;;;;;5060226;28;20048;-83
2021/07/30 09:48:48;;;;;;;8.02;4.22;;;28.10;99.90;;;;;;5059040;28;20497;-84
2021/07/30 09:51:16;;;;;;;7.80;4.65;;;27.80;99.90;;;;;;5059802;28;20112;-84
2021/07/30 09:53:46;;;;;;;6.78;4.15;;;28.10;99.90;;;;;;5059643;28;20128;-84
2021/07/30 09:56:15;;;;;;;7.93;4.55;;;28.20;99.90;;;;;;5059745;28;20049;-84
2021/07/30 09:58:44;;;;;;;6.47;4.47;;;28.50;99.90;;;;;;5059086;28;20053;-83
2021/07/30 10:01:15;;;;;;;5.50;4.40;;;28.50;99.90;;;;;;5059507;28;20049;-84
2021/07/30 10:03:43;;;;;;;7.97;4.38;;;28.60;99.90;;;;;;5058764;28;20573;-85
2021/07/30 10:06:13;;;;;;;5.80;4.32;;;28.30;99.90;;;;;;5059651;28;20055;-84
2021/07/30 10:08:40;;;;;;;8.90;4.50;;;28.20;99.90;;;;;;5060329;28;20049;-83
2021/07/30 10:11:10;;;;;;;6.10;4.82;;;28.20;99.90;;;;;;5060492;28;20112;-83
2021/07/30 10:13:47;;;;;;;6.85;4.60;;;28.20;99.90;;;;;;5059362;28;20053;-83
2021/07/30 10:16:15;;;;;;;6.60;4.57;;;28.10;99.90;;;;;;5060598;28;20091;-85
2021/07/30 10:18:43;;;;;;;9.07;4.82;;;28.00;99.90;;;;;;5059160;28;20056;-85
2021/07/30 10:21:14;;;;;;;7.63;4.50;;;27.90;99.90;;;;;;5058810;28;20131;-85
2021/07/30 10:23:44;;;;;;;7.00;4.53;;;27.90;99.90;;;;;;5056620;28;20416;-85
2021/07/30 10:26:13;;;;;;;6.22;4.65;;;27.90;99.90;;;;;;5058003;28;20112;-83
2021/07/30 10:28:40;;;;;;;5.22;4.53;;;27.50;99.90;;;;;;5059094;28;20041;-84
2021/07/30 10:31:09;;;;;;;5.45;4.70;;;27.10;99.90;;;;;;5058609;28;20056;-84
2021/07/30 10:33:48;;;;;;;5.05;4.35;;;27.00;99.90;;;;;;5062687;28;20454;-84
2021/07/30 10:36:33;;;;;;;5.00;4.38;;;26.80;99.90;;;;;;5062758;28;20045;-85
2021/07/30 10:39:09;;;;;;;5.13;4.50;;;26.70;99.90;;;;;;5063101;28;20045;-85
2021/07/30 10:41:37;;;;;;;5.80;4.45;;;26.70;99.90;;;;;;5062676;28;20053;-84
2021/07/30 10:44:09;;;;;;;8.48;4.78;;;26.60;99.90;;;;;;5063231;28;20537;-84
2021/07/30 10:46:36;;;;;;;5.88;4.30;;;26.60;99.90;;;;;;5063723;28;20229;-85
2021/07/30 10:49:42;;;;;;;5.38;4.32;;;26.50;99.90;;;;;;5061759;28;20500;-84
2021/07/30 10:52:29;;;;;;;5.82;4.60;;;26.60;99.90;;;;;;5062569;28;20056;-85
2021/07/30 10:54:56;;;;;;;5.00;4.40;;;26.80;99.90;;;;;;5062473;28;20114;-85
2021/07/30 10:57:55;;;;;;;5.65;4.70;;;27.10;99.90;;;;;;5062763;28;20052;-85
2021/07/30 11:00:22;;;;;;;9.00;4.45;;;27.40;99.90;;;;;;5062766;28;20422;-85
2021/07/30 11:03:10;;;;;;;7.68;4.40;;;27.50;99.90;;;;;;5064393;28;20044;-85
2021/07/30 11:06:11;;;;;;;6.82;4.40;;;27.60;99.90;;;;;;5057313;28;20080;-86
2021/07/30 11:09:17;;;;;;;6.25;4.50;;;27.50;99.90;;;;;;5064484;28;20131;-85
2021/07/30 11:11:45;;;;;;;7.05;4.72;;;27.40;99.90;;;;;;5062815;28;20080;-85
2021/07/30 11:14:16;;;;;;;7.50;4.30;;;27.30;99.90;;;;;;5063395;28;20075;-84
2021/07/30 11:16:44;;;;;;;6.18;4.30;;;27.50;99.90;;;;;;5064126;28;20104;-85
2021/07/30 11:19:12;;;;;;;6.70;4.53;;;27.60;99.90;;;;;;5063702;28;20055;-84
2021/07/30 11:21:41;;;;;;;7.00;4.45;;;27.70;99.90;;;;;;5062655;28;20080;-85
2021/07/30 11:24:09;;;;;;;6.00;4.47;;;27.70;99.90;;;;;;5063677;28;20080;-83
2021/07/30 11:26:38;;;;;;;5.30;4.40;;;27.80;99.90;;;;;;5063877;28;20190;-83
2021/07/30 11:29:08;;;;;;;6.35;4.50;;;27.80;99.90;;;;;;5063549;28;20049;-85
2021/07/30 11:31:37;;;;;;;6.28;4.45;;;27.90;99.90;;;;;;5063341;28;20112;-84
2021/07/30 11:34:03;;;;;;;7.40;4.68;;;27.90;99.90;;;;;;5064511;28;20060;-86
2021/07/30 11:36:30;;;;;;;7.30;4.70;;;28.00;99.90;;;;;;5064946;28;20117;-84
2021/07/30 11:38:59;;;;;;;9.55;4.60;;;27.90;99.90;;;;;;5062338;28;20087;-84
2021/07/30 11:41:29;;;;;;;6.57;4.60;;;27.90;99.90;;;;;;5062229;28;20049;-83
2021/07/30 11:44:00;;;;;;;9.25;4.82;;;27.80;99.90;;;;;;5060915;28;20077;-83
2021/07/30 11:46:27;;;;;;;6.13;4.85;;;27.80;99.90;;;;;;5062704;28;20576;-85
2021/07/30 11:48:55;;;;;;;6.65;4.50;;;27.60;99.90;;;;;;5062445;28;20052;-81
2021/07/30 11:51:22;;;;;;;6.82;4.38;;;27.60;99.90;;;;;;5061430;28;20486;-83
2021/07/30 11:53:50;;;;;;;9.15;4.80;;;27.60;99.90;;;;;;5062337;28;20116;-82
2021/07/30 11:56:21;;;;;;;8.65;4.80;;;27.80;99.90;;;;;;5062833;28;20147;-86
2021/07/30 11:58:58;;;;;;;8.98;4.32;;;28.10;99.90;;;;;;5062247;28;20112;-83
2021/07/30 12:01:26;;;;;;;5.32;4.40;;;28.20;99.90;;;;;;5062260;28;20099;-84
2021/07/30 12:04:08;;;;;;;6.20;4.75;;;28.10;99.90;;;;;;5062767;28;20230;-84
2021/07/30 12:06:41;;;;;;;10.13;4.72;;;27.90;99.90;;;;;;5062154;28;20135;-85
2021/07/30 12:09:10;;;;;;;;;;;27.80;99.90;;;;;;5061648;28;20125;-80
2021/07/30 12:14:31;;;;;;;6.47;4.82;;;27.90;99.90;;;;;;5035849;28;20061;-79
2021/07/30 12:17:00;;;;;;;5.60;4.53;;;28.00;99.90;;;;;;5041052;28;20130;-80
2021/07/30 12:19:30;;;;;;;7.35;4.45;;;27.80;99.90;;;;;;5040111;28;20429;-82
2021/07/30 12:22:01;;;;;;;6.95;4.53;;;27.80;99.90;;;;;;5041117;28;20410;-78
2021/07/30 12:24:33;;;;;;;7.00;4.85;;;27.80;99.90;;;;;;5059683;28;20543;-80
2021/07/30 12:27:17;;;;;;;9.18;4.50;;;27.90;99.90;;;;;;5060699;28;20075;-80
2021/07/30 12:29:50;;;;;;;6.55;4.85;;;27.90;99.90;;;;;;5059812;28;20129;-79
2021/07/30 12:32:23;;;;;;;7.45;4.88;;;27.90;99.90;;;;;;5060577;28;20051;-79
2021/07/30 12:35:06;;;;;;;5.55;4.43;;;27.90;99.90;;;;;;5059950;28;20114;-79
2021/07/30 12:37:35;;;;;;;6.88;5.28;;;27.90;99.90;;;;;;5060031;28;20053;-79
2021/07/30 12:40:05;;;;;;;5.63;4.68;;;27.90;99.90;;;;;;5060273;28;20110;-79
2021/07/30 12:42:37;;;;;;;6.28;4.93;;;27.60;99.90;;;;;;5061303;28;20060;-80
2021/07/30 12:45:13;;;;;;;9.30;4.97;;;27.50;99.90;;;;;;5060988;28;20088;-79
2021/07/30 12:48:03;;;;;;;7.20;4.70;;;27.60;99.90;;;;;;5061469;28;20433;-79
2021/07/30 12:50:33;;;;;;;7.07;4.68;;;27.70;99.90;;;;;;5061446;28;20072;-79
2021/07/30 12:53:05;;;;;;;5.78;4.70;;;27.90;99.90;;;;;;5061308;28;20049;-79
2021/07/30 12:55:33;;;;;;;7.53;4.82;;;28.00;99.90;;;;;;5061851;28;20079;-80
2021/07/30 12:58:01;;;;;;;6.78;4.85;;;27.90;99.90;;;;;;5059452;28;20053;-79
2021/07/30 13:00:35;;;;;;;7.15;5.05;;;27.90;99.90;;;;;;5061234;28;20168;-79
2021/07/30 13:03:02;;;;;;;10.73;4.85;;;28.00;99.90;;;;;;5060720;28;20075;-78
2021/07/30 13:05:31;;;;;;;8.18;6.07;;;28.00;99.90;;;;;;5060523;28;20110;-80
2021/07/30 13:08:00;;;;;;;7.65;4.97;;;27.90;99.90;;;;;;5059829;28;20049;-79
2021/07/30 13:10:28;;;;;;;7.22;5.55;;;27.90;99.90;;;;;;5061292;28;20049;-80
2021/07/30 13:12:55;;;;;;;5.85;4.30;;;28.00;99.90;;;;;;5059663;28;20092;-79
2021/07/30 13:15:23;;;;;;;8.32;4.90;;;28.30;99.90;;;;;;5062019;28;20053;-79
2021/07/30 13:17:54;;;;;;;7.05;4.90;;;28.40;99.90;;;;;;5059905;28;20477;-80
2021/07/30 13:20:21;;;;;;;7.57;4.85;;;28.50;99.90;;;;;;5060927;28;20584;-80
2021/07/30 13:22:48;;;;;;;8.38;5.75;;;28.60;99.90;;;;;;5059901;28;20059;-80
2021/07/30 13:25:22;;;;;;;9.63;4.70;;;28.60;99.90;;;;;;5060383;28;20497;-79
2021/07/30 13:27:49;;;;;;;5.53;4.95;;;28.50;99.90;;;;;;5060025;28;20446;-79
2021/07/30 13:30:16;;;;;;;7.32;5.20;;;28.30;99.90;;;;;;5060119;28;20475;-79
2021/07/30 13:32:44;;;;;;;6.10;4.70;;;28.20;99.90;;;;;;5060371;28;20146;-80
2021/07/30 13:35:13;;;;;;;5.95;5.35;;;28.20;99.90;;;;;;5061247;28;20087;-78
2021/07/30 13:37:41;;;;;;;5.70;5.10;;;28.30;99.90;;;;;;5061875;28;20049;-79
2021/07/30 13:40:09;;;;;;;6.53;4.78;;;28.40;99.90;;;;;;5061178;28;20041;-79
2021/07/30 13:42:36;;;;;;;7.70;5.60;;;28.40;99.90;;;;;;5061066;28;20057;-80